大分空港の過去48時間の天気

大分空港 (Oita)

現在時刻: 10/24 17:50 JST (10/24 08:50 UTC) 以下の時間は現地時間です。

過去48時間のMETAR気象情報
時間 風向 風速(m/s) 視程 気温(℃) 湿度(%) 気圧(hPa) 天気現象
24 17:00 北西 5 10km以上 17 42 1014
24 16:00 北西 4 10km以上 18 42 1014
24 15:00 北西 6 10km以上 18 42 1014
24 14:00 西北西 7 10km以上 18 42 1014
24 13:00 北西 7 10km以上 18 39 1014
24 12:00 西北西 6 10km以上 18 42 1014
24 11:00 西北西 7 10km以上 17 45 1015
24 10:00 西北西 7 10km以上 16 51 1015
24 09:00 北西 2 10km以上 14 67 1015
24 08:00 西 2 10km以上 13 72 1015 弱いしゅう雨
24 07:00 西 5 10km以上 13 62 1014
23 22:00 西 2 10km以上 13 62 1012
23 21:00 南西 3 10km以上 12 71 1012
23 20:00 西南西 2 10km以上 13 67 1011
23 19:00 西 2 10km以上 14 63 1011
23 18:00 西 3 10km以上 15 59 1010
23 17:00 西北西 4 10km以上 16 55 1010
23 16:00 西北西 7 10km以上 17 48 1009
23 15:00 北西 7 10km以上 18 45 1009
23 14:00 北西 7 10km以上 18 45 1008
23 13:00 北西 7 10km以上 18 49 1008
23 12:00 北西 6 10km以上 18 49 1009
23 11:00 北北西 7 10km以上 18 49 1009
23 10:00 北北西 7 10km以上 17 59 1009
23 09:00 北西 4 10km以上 17 72 1009
23 08:00 北西 4 10km以上 16 77 1009
23 07:00 北西 5 10km以上 16 88 1008
22 22:00 不定 1 10km以上 19 88 1008
22 21:00 北北西 2 10km以上 20 83 1009 弱い雨
22 20:00 3 10km以上 20 88 1008 弱い雨
22 19:00 北北西 3 10km以上 20 88 1009 弱いしゅう雨
22 18:10 北北西 3 6000m 20 94 1008 弱いしゅう雨
22 18:00 北北西 3 4000m 20 94 1008 しゅう雨 もや
RJFO 240800Z 31010KT 9999 FEW030 17/04 Q1014
RJFO 240700Z 31008KT 270V350 9999 FEW040 18/05 Q1014
RJFO 240600Z 32012KT 9999 FEW035 18/05 Q1014
RJFO 240500Z 30014KT 270V340 9999 FEW040 18/05 Q1014
RJFO 240400Z 31013KT 9999 FEW040 18/04 Q1014
RJFO 240300Z 29011KT 9999 FEW040 18/05 Q1014
RJFO 240200Z 29013KT 250V320 9999 FEW030 SCT045 17/05 Q1015
RJFO 240100Z 29013KT 260V320 9999 FEW030 SCT045 16/06 Q1015
RJFO 240000Z 31004KT 9999 FEW030 SCT035 BKN060 14/08 Q1015
RJFO 232300Z 26004KT 9999 -SHRA FEW030 SCT035 BKN040 13/08 Q1015
RJFO 232200Z 28010KT 9999 FEW030 SCT070 13/06 Q1014
RJFO 231300Z 28004KT 9999 FEW040 13/06 Q1012
RJFO 231200Z 23005KT 9999 FEW040 12/07 Q1012
RJFO 231100Z 24004KT 9999 FEW040 13/07 Q1011
RJFO 231000Z 26004KT 9999 FEW040 14/07 Q1011
RJFO 230900Z 27006KT 9999 FEW040 15/07 Q1010
RJFO 230800Z 29008KT 240V330 9999 FEW035 16/07 Q1010
RJFO 230700Z 30014KT 270V330 9999 FEW030 17/06 Q1009
RJFO 230600Z 31014KT 9999 FEW030 SCT045 18/06 Q1009
RJFO 230500Z 31013G27KT 260V350 9999 FEW030 SCT045 18/06 Q1008
RJFO 230400Z 31013KT 290V350 9999 FEW030 SCT045 18/07 Q1008
RJFO 230300Z 31011KT 270V350 9999 FEW030 SCT045 18/07 Q1009
RJFO 230200Z 33013KT 9999 FEW030 18/07 Q1009
RJFO 230100Z 33014KT 9999 FEW030 BKN050 17/09 Q1009
RJFO 230000Z 31008KT 9999 FEW030 SCT050 BKN/// 17/12 Q1009
RJFO 222300Z 31008KT 9999 FEW030 SCT040 BKN150 16/12 Q1009
RJFO 222200Z 32009KT 9999 FEW025 SCT050 BKN180 16/14 Q1008
RJFO 221300Z VRB02KT 9999 FEW005 BKN090 19/17 Q1008
RJFO 221200Z 33003KT 300V030 9999 -RA FEW005 BKN090 20/17 Q1009
RJFO 221100Z 36006KT 9999 -RA FEW005 SCT050 BKN100 20/18 Q1008
RJFO 221000Z 33005KT 300V010 9999 -SHRA FEW002 SCT020 BKN035 20/18 Q1009
RJFO 220910Z 34005KT 250V350 6000 -SHRA FEW002 SCT015 BKN020 20/19 Q1008 RMK 1ST002 3CU015 6CU020 A2979
RJFO 220900Z 34006KT 4000 SHRA BR FEW002 SCT010 BKN020 20/19 Q1008